Shark River Manor, New Jersey
Current Conditions -  °F | °C
As of 3:35 AM on Saturday 25 Oct 2014 (Local Time) from KBLM Reporting Station
Clear Clear  
Wind Chill: 10°   Ceiling: Unl
Heat Index: 10°   Visibility: 10mi
Dew Point:   Wind: 7mph
Humidity: 54%   Direction: 320°NW
Pressure: 29.87"   Gusts: NA
Location:  40.1681°N, 74.0774°W
Report Text: KBLM 250735Z AUTO 32006KT 10SM CLR 10/01 A2987 RMK AO1
Loading
Personal Weather Stations






























Interactive Weather Map
Tropical Storm Tracking
New forecast layout! Learn more

10-Day Weather Forecast

Advertisements
Track Severe Weather on mobile